Diamond Lake, Oregon
Current Conditions -  °F | °C
As of 3:53 AM on Monday 22 Dec 2014 (Local Time) from KLMT Reporting Station
Overcast Overcast  
Wind Chill: 43°   Ceiling: 2600
Heat Index: 49°   Visibility: 10mi
Dew Point: 43°   Wind: 16mph
Humidity: 80%   Direction: 270°W
Pressure: 30.22"   Gusts: 26mph
Location:  43.0567°N, 121.852°W
Report Text: KLMT 221153Z AUTO 27014G23KT 10SM SCT017 OVC026 09/06 A3022 RMK AO2 SLP219 70048 T00940061 10106 20089 50001
Loading
Personal Weather Stations






























Interactive Weather Map New forecast layout! Learn more

10-Day Weather Forecast

Advertisements
Track Severe Weather on mobile